Time;durP1;ratioP1;P1;durP2;ratioP2;P2;SDS_P1;SDS_P2;PMS_P1;PMS_P2;Temp;Humidity;BMP_temperature;BMP_pressure;BME280_temperature;BME280_humidity;BME280_pressure;Samples;Min_cycle;Max_cycle;Signal;HPM_P1;HPM_P2
2022/04/30 00:02:15;;;;;;;;;33.75;28.75;;;;;14.15;49.36;102022.94;5002312;28;47529;-81
2022/04/30 00:04:43;;;;;;;;;32.00;30.75;;;;;14.30;49.13;102050.75;5006765;28;45736;-81
2022/04/30 00:07:11;;;;;;;;;34.75;27.50;;;;;14.38;49.36;102072.63;5002078;28;45542;-80
2022/04/30 00:09:37;;;;;;;;;29.25;27.50;;;;;14.24;49.52;102052.78;4998323;28;45455;-80
2022/04/30 00:12:02;;;;;;;;;24.75;24.50;;;;;14.14;49.58;102031.88;5000952;28;48211;-79
2022/04/30 00:14:29;;;;;;;;;31.75;29.75;;;;;14.32;49.51;102054.22;4998725;28;45581;-81
2022/04/30 00:16:55;;;;;;;;;32.00;30.50;;;;;14.09;49.56;102025.91;4988873;28;45504;-81
2022/04/30 00:19:21;;;;;;;;;30.00;26.25;;;;;14.22;49.67;102054.66;4997405;28;45543;-81
2022/04/30 00:21:47;;;;;;;;;31.00;29.25;;;;;13.94;49.91;102009.66;5003751;28;45377;-81
2022/04/30 00:24:13;;;;;;;;;28.25;26.75;;;;;14.22;50.10;102054.66;5002768;28;46433;-81
2022/04/30 00:26:39;;;;;;;;;34.75;28.75;;;;;14.09;50.12;102045.50;5005765;28;45602;-81
2022/04/30 00:29:04;;;;;;;;;34.50;31.50;;;;;13.94;51.17;102033.75;5005151;28;45572;-81
2022/04/30 00:31:30;;;;;;;;;31.50;29.00;;;;;14.03;51.08;102049.38;5002637;28;46114;-80
2022/04/30 00:33:56;;;;;;;;;37.25;31.75;;;;;13.68;50.87;102000.22;5002745;28;45498;-81
2022/04/30 00:36:22;;;;;;;;;28.50;28.00;;;;;13.92;51.43;102043.66;5002759;28;45543;-79
2022/04/30 00:38:47;;;;;;;;;29.50;29.00;;;;;13.98;51.68;102071.97;4991695;28;45965;-80
2022/04/30 00:41:13;;;;;;;;;41.25;34.25;;;;;13.78;52.10;102049.72;5000626;28;46315;-78
2022/04/30 00:43:46;;;;;;;;;34.50;30.50;;;;;13.85;52.21;102069.88;5000063;28;45526;-81
2022/04/30 00:46:16;;;;;;;;;35.50;30.25;;;;;13.87;52.03;102074.28;5003740;28;45614;-81
2022/04/30 00:48:45;;;;;;;;;33.00;31.00;;;;;13.64;52.90;102065.56;5001696;28;45567;-80
2022/04/30 00:51:13;;;;;;;;;34.50;30.75;;;;;13.46;53.15;102048.56;5003655;28;45754;-80
2022/04/30 00:53:46;;;;;;;;;36.50;30.75;;;;;13.39;53.40;102045.31;5001648;28;45426;-81
2022/04/30 00:56:13;;;;;;;;;32.50;31.50;;;;;13.62;53.54;102068.31;5002996;28;45521;-80
2022/04/30 00:58:44;;;;;;;;;37.50;31.50;;;;;13.52;53.53;102066.16;5002594;28;45602;-81
2022/04/30 01:01:11;;;;;;;;;32.00;29.00;;;;;13.46;53.56;102050.38;5003845;28;45936;-80
2022/04/30 01:03:36;;;;;;;;;28.50;24.50;;;;;13.32;53.73;102041.19;5003239;28;45403;-81
2022/04/30 01:06:03;;;;;;;;;33.00;28.00;;;;;13.48;53.65;102067.22;4999882;28;45431;-81
2022/04/30 01:08:29;;;;;;;;;37.25;31.75;;;;;13.46;53.73;102056.59;4997191;28;45858;-81
2022/04/30 01:10:56;;;;;;;;;31.25;27.75;;;;;13.51;53.53;102067.06;5001120;28;48033;-81
2022/04/30 01:13:22;;;;;;;;;35.75;32.00;;;;;13.48;53.59;102057.38;4994315;28;45808;-81
2022/04/30 01:15:47;;;;;;;;;33.75;28.75;;;;;13.46;53.85;102053.91;4990509;28;45485;-79
2022/04/30 01:18:13;;;;;;;;;38.50;30.25;;;;;13.31;53.83;102036.78;5002846;28;45553;-80
2022/04/30 01:20:43;;;;;;;;;29.75;28.50;;;;;13.46;53.88;102055.72;4996202;28;48122;-81
2022/04/30 01:23:10;;;;;;;;;32.50;31.25;;;;;13.32;54.08;102034.97;4999550;28;45940;-81
2022/04/30 01:25:38;;;;;;;;;37.00;32.25;;;;;13.33;53.98;102040.25;4998383;28;45389;-80
2022/04/30 01:28:04;;;;;;;;;43.75;34.25;;;;;13.33;54.37;102047.41;4996261;28;45469;-81
2022/04/30 01:30:29;;;;;;;;;32.00;28.25;;;;;13.28;54.48;102044.09;4999045;28;46056;-81
2022/04/30 01:38:23;;;;;;;;;36.00;31.50;;;;;13.20;54.39;102039.03;4991402;28;45232;-81
2022/04/30 01:40:48;;;;;;;;;33.75;30.50;;;;;12.97;55.03;101994.69;4992611;28;45597;-81
2022/04/30 01:43:15;;;;;;;;;37.75;33.00;;;;;13.22;55.03;102043.38;4987127;28;45511;-80
2022/04/30 01:45:43;;;;;;;;;36.50;33.75;;;;;13.26;54.62;102048.63;4991699;28;45424;-81
2022/04/30 01:48:12;;;;;;;;;34.00;31.50;;;;;13.14;55.02;102025.97;4991019;28;45565;-81
2022/04/30 01:50:38;;;;;;;;;38.50;34.00;;;;;13.22;54.72;102034.50;4992568;28;46463;-80
2022/04/30 01:53:03;;;;;;;;;39.00;33.25;;;;;13.13;55.02;102033.13;5004776;28;54008;-80
2022/04/30 01:55:29;;;;;;;;;33.25;30.25;;;;;13.14;55.21;102036.66;4992538;28;45993;-80
2022/04/30 01:57:55;;;;;;;;;36.00;30.50;;;;;12.92;55.37;102002.91;4992003;28;45467;-80
2022/04/30 02:00:20;;;;;;;;;36.50;30.00;;;;;12.96;55.68;102022.31;4992331;28;46425;-79
2022/04/30 02:02:49;;;;;;;;;37.50;33.25;;;;;12.76;55.94;102002.72;4991908;28;45594;-80
2022/04/30 02:05:17;;;;;;;;;32.25;30.00;;;;;12.79;56.09;102009.72;4994434;28;45393;-79
2022/04/30 02:07:49;;;;;;;;;32.00;28.50;;;;;12.85;55.95;102024.63;4994444;28;45487;-79
2022/04/30 02:10:15;;;;;;;;;32.25;29.00;;;;;12.90;55.96;102030.63;4991747;28;45479;-80
2022/04/30 02:12:41;;;;;;;;;31.25;28.75;;;;;12.80;55.99;102014.16;4992489;28;45786;-80
2022/04/30 02:15:08;;;;;;;;;30.00;28.25;;;;;12.87;56.17;102012.94;5004102;28;45287;-79
2022/04/30 02:17:38;;;;;;;;;31.50;26.50;;;;;12.68;56.27;101990.66;4991131;28;45491;-79
2022/04/30 02:20:19;;;;;;;;;28.00;27.75;;;;;12.79;56.50;102015.06;4992186;28;46295;-79
2022/04/30 02:22:45;;;;;;;;;30.25;30.25;;;;;12.68;56.64;102001.34;4975212;28;45472;-80
2022/04/30 02:25:12;;;;;;;;;36.25;32.00;;;;;12.63;56.89;102004.22;4989932;28;46170;-79
2022/04/30 02:27:47;;;;;;;;;30.75;27.50;;;;;12.72;56.94;102017.16;4991173;28;45754;-79
2022/04/30 02:30:15;;;;;;;;;33.25;30.75;;;;;12.55;56.77;101976.97;4993120;28;45453;-80
2022/04/30 02:32:48;;;;;;;;;34.00;29.50;;;;;12.71;56.74;102007.41;4991061;28;45513;-80
2022/04/30 02:35:19;;;;;;;;;26.25;26.25;;;;;12.62;57.22;102001.59;4993943;28;45481;-80
2022/04/30 02:37:49;;;;;;;;;36.75;32.75;;;;;12.66;57.06;102028.13;4991301;28;45598;-79
2022/04/30 02:40:16;;;;;;;;;35.00;27.25;;;;;12.62;56.83;102012.28;4990604;28;46279;-81
2022/04/30 02:42:42;;;;;;;;;31.00;27.50;;;;;12.48;57.19;101991.53;4988177;28;45586;-79
2022/04/30 02:45:09;;;;;;;;;33.50;29.75;;;;;12.56;57.36;102013.44;4988726;28;45440;-79
2022/04/30 02:47:38;;;;;;;;;32.25;28.75;;;;;12.55;57.11;101996.56;4990931;28;46753;-80
2022/04/30 02:50:07;;;;;;;;;28.50;24.75;;;;;12.45;57.12;101979.16;4992555;28;46459;-80
2022/04/30 02:52:33;;;;;;;;;32.50;26.25;;;;;12.42;57.33;101967.78;4987477;28;46056;-80
2022/04/30 02:54:58;;;;;;;;;38.25;33.75;;;;;12.62;57.29;101998.94;4985848;28;45530;-80
2022/04/30 02:57:23;;;;;;;;;34.25;29.00;;;;;12.30;57.40;101953.16;4990664;28;45383;-80
2022/04/30 02:59:55;;;;;;;;;30.50;26.25;;;;;12.56;56.96;101992.94;4991443;28;47068;-80
2022/04/30 03:02:23;;;;;;;;;34.50;31.00;;;;;12.33;57.21;101956.53;4992094;28;45553;-80
2022/04/30 03:04:53;;;;;;;;;29.75;29.75;;;;;12.59;57.24;101999.94;4990400;28;45493;-80
2022/04/30 03:07:22;;;;;;;;;28.75;28.75;;;;;12.51;57.46;101992.28;4992933;28;45376;-80
2022/04/30 03:09:48;;;;;;;;;33.25;30.25;;;;;12.56;57.30;102000.94;4991060;28;45925;-79
2022/04/30 03:12:14;;;;;;;;;34.00;30.75;;;;;12.28;57.79;101963.88;4997677;28;45580;-80
2022/04/30 03:14:41;;;;;;;;;38.50;32.00;;;;;12.44;57.65;102000.63;4996558;28;45461;-80
2022/04/30 03:22:35;;;;;;;;;37.25;31.00;;;;;12.31;57.80;101974.47;4997321;28;45356;-80
2022/04/30 03:25:00;;;;;;;;;32.50;31.75;;;;;12.43;58.06;101997.06;4997752;28;45343;-80
2022/04/30 03:27:25;;;;;;;;;28.25;24.75;;;;;12.35;57.95;101978.72;4997546;28;45369;-80
2022/04/30 03:29:51;;;;;;;;;31.25;28.75;;;;;12.43;58.02;101985.50;4996076;28;47084;-80
2022/04/30 03:32:17;;;;;;;;;29.50;26.75;;;;;12.36;57.85;101975.13;4997513;28;45361;-80
2022/04/30 03:34:42;;;;;;;;;30.25;29.75;;;;;12.35;57.81;101972.50;4997801;28;45508;-80
2022/04/30 03:37:08;;;;;;;;;32.00;25.25;;;;;12.21;57.87;101953.56;4997095;28;45464;-80
2022/04/30 03:39:33;;;;;;;;;28.00;25.50;;;;;12.21;58.03;101961.56;4995632;28;48726;-80
2022/04/30 03:41:58;;;;;;;;;34.50;30.75;;;;;12.14;58.05;101959.13;4997310;28;46730;-80
2022/04/30 03:44:25;;;;;;;;;30.50;27.50;;;;;12.39;58.02;101994.59;4997563;28;45305;-80
2022/04/30 03:46:50;;;;;;;;;33.00;29.00;;;;;12.43;57.97;101993.53;4997658;28;45274;-80
2022/04/30 03:49:16;;;;;;;;;35.50;31.50;;;;;12.21;58.36;101966.91;4995543;28;47130;-80
2022/04/30 03:51:41;;;;;;;;;32.50;28.75;;;;;12.23;58.56;101970.38;4992380;28;45392;-80
2022/04/30 03:54:07;;;;;;;;;21.00;19.75;;;;;12.18;58.01;101967.03;4996883;28;45975;-80
2022/04/30 03:56:32;;;;;;;;;35.00;32.75;;;;;12.20;58.29;101974.03;4997055;28;45308;-80
2022/04/30 03:58:58;;;;;;;;;34.50;29.00;;;;;12.22;58.50;101974.84;4997354;28;45294;-79
2022/04/30 04:01:24;;;;;;;;;36.50;30.50;;;;;12.28;58.38;101981.72;4995324;28;45500;-80
2022/04/30 04:03:50;;;;;;;;;28.25;25.50;;;;;12.26;58.42;101986.25;4994631;28;45516;-80
2022/04/30 04:06:16;;;;;;;;;34.00;28.75;;;;;12.08;58.46;101958.56;4996523;28;45531;-79
2022/04/30 04:08:42;;;;;;;;;31.25;29.50;;;;;12.24;58.55;101999.69;4996940;28;46140;-79
2022/04/30 04:11:10;;;;;;;;;32.00;28.25;;;;;12.23;58.63;101991.72;4997293;28;45472;-79
2022/04/30 04:19:13;;;;;;;;;34.25;27.75;;;;;12.20;59.06;102005.22;4996114;28;45845;-80
2022/04/30 04:21:39;;;;;;;;;29.25;27.00;;;;;12.17;58.90;102000.88;4996013;28;45385;-80
2022/04/30 04:26:48;;;;;;;;;31.25;27.25;;;;;12.08;58.95;101985.25;4982213;28;45535;-80
2022/04/30 04:29:16;;;;;;;;;34.25;31.50;;;;;12.02;58.96;101981.03;4995245;28;47157;-80
2022/04/30 04:31:42;;;;;;;;;35.00;30.50;;;;;11.84;59.03;101950.63;4996462;28;45400;-80
2022/04/30 04:34:08;;;;;;;;;36.50;30.00;;;;;12.09;59.18;102001.19;4994798;28;47957;-80
2022/04/30 04:36:33;;;;;;;;;29.25;27.50;;;;;12.08;59.09;101990.59;4996859;28;45302;-80
2022/04/30 04:38:58;;;;;;;;;33.00;29.50;;;;;12.02;59.50;102002.38;5011542;28;47290;-80
2022/04/30 04:41:24;;;;;;;;;39.00;33.75;;;;;11.92;59.74;101983.22;4996531;28;45415;-80
2022/04/30 04:43:49;;;;;;;;;34.00;32.00;;;;;11.77;59.45;101965.16;4996962;28;45313;-80
2022/04/30 04:46:15;;;;;;;;;31.50;28.00;;;;;11.98;59.37;101990.09;4996357;28;45550;-80
2022/04/30 04:48:40;;;;;;;;;34.50;31.00;;;;;12.06;59.56;102013.81;4995744;28;46119;-80
2022/04/30 04:51:06;;;;;;;;;32.00;28.25;;;;;12.01;59.37;102014.00;4996328;28;45739;-80
2022/04/30 04:53:31;;;;;;;;;34.75;28.25;;;;;12.01;59.62;102019.31;4996140;28;45385;-80
2022/04/30 04:55:57;;;;;;;;;35.00;31.25;;;;;12.02;59.73;102018.38;4996969;28;45459;-80
2022/04/30 04:58:22;;;;;;;;;32.50;28.50;;;;;12.02;59.74;102028.19;4996095;28;46034;-80
2022/04/30 05:00:49;;;;;;;;;33.75;31.00;;;;;11.99;59.98;102017.66;4995863;28;45591;-80
2022/04/30 05:03:14;;;;;;;;;31.50;30.25;;;;;11.90;59.55;102002.88;4993277;28;45470;-80
2022/04/30 05:05:39;;;;;;;;;34.75;30.25;;;;;12.05;59.70;102034.28;4994628;28;45373;-80
2022/04/30 05:08:05;;;;;;;;;37.75;32.75;;;;;11.94;59.96;102016.03;4996598;28;45328;-80
2022/04/30 05:10:30;;;;;;;;;32.00;30.50;;;;;12.01;59.96;102037.16;4995728;28;45379;-80
2022/04/30 05:12:56;;;;;;;;;34.25;31.00;;;;;11.96;60.28;102037.34;4995600;28;45488;-80
2022/04/30 05:15:21;;;;;;;;;38.25;32.75;;;;;11.98;60.21;102021.25;4995799;28;45527;-80
2022/04/30 05:17:46;;;;;;;;;38.00;33.75;;;;;12.00;60.15;102028.28;4995697;28;46425;-80
2022/04/30 05:20:12;;;;;;;;;38.75;34.00;;;;;11.98;60.13;102034.59;4995786;28;58077;-80
2022/04/30 05:22:37;;;;;;;;;33.75;29.00;;;;;11.93;60.22;102026.78;4995933;28;45273;-80
2022/04/30 05:25:03;;;;;;;;;35.50;32.00;;;;;11.86;60.31;102023.47;4995766;28;45398;-79
2022/04/30 05:27:28;;;;;;;;;37.75;33.00;;;;;11.88;60.04;102020.75;4994243;28;48194;-80
2022/04/30 05:29:53;;;;;;;;;38.75;31.50;;;;;11.91;60.20;102032.19;4995632;28;45466;-80
2022/04/30 05:32:19;;;;;;;;;35.00;33.00;;;;;11.84;60.26;102022.66;4995405;28;45325;-80
2022/04/30 05:34:45;;;;;;;;;35.00;33.00;;;;;12.01;60.48;102048.69;4992560;28;45497;-80
2022/04/30 05:37:11;;;;;;;;;37.50;32.25;;;;;11.90;60.81;102030.44;4995725;28;46073;-80
2022/04/30 05:39:36;;;;;;;;;36.75;31.00;;;;;11.90;60.49;102022.44;4994207;28;45568;-80
2022/04/30 05:42:02;;;;;;;;;41.75;33.00;;;;;12.09;60.42;102059.03;4995462;28;48294;-80
2022/04/30 05:44:27;;;;;;;;;32.75;31.00;;;;;12.13;60.31;102055.31;4995474;28;45375;-80
2022/04/30 05:46:53;;;;;;;;;32.25;30.50;;;;;12.01;60.24;102035.34;4995207;28;45413;-80
2022/04/30 05:49:18;;;;;;;;;39.00;34.50;;;;;12.13;60.25;102058.84;5010400;28;45362;-80
2022/04/30 05:51:44;;;;;;;;;39.25;34.25;;;;;12.15;60.13;102061.47;4995206;28;45764;-80
2022/04/30 05:54:09;;;;;;;;;35.25;33.00;;;;;12.09;60.22;102046.56;4994169;28;45279;-80
2022/04/30 05:56:34;;;;;;;;;37.25;32.00;;;;;12.05;60.08;102058.31;4995465;28;45369;-81
2022/04/30 05:59:00;;;;;;;;;40.50;34.00;;;;;12.09;60.29;102062.56;4994406;28;45517;-80
2022/04/30 06:01:25;;;;;;;;;36.25;32.50;;;;;11.92;60.55;102033.03;5009256;28;46003;-80
2022/04/30 06:03:51;;;;;;;;;37.75;33.50;;;;;12.12;60.24;102067.81;4993673;28;45491;-80
2022/04/30 06:06:19;;;;;;;;;39.75;34.00;;;;;12.03;60.16;102051.31;5009732;28;46018;-80
2022/04/30 06:08:45;;;;;;;;;40.25;33.75;;;;;12.17;60.04;102069.41;4979895;28;45638;-80
2022/04/30 06:11:11;;;;;;;;;37.50;34.00;;;;;12.12;60.16;102061.56;4995705;28;45570;-80
2022/04/30 06:13:36;;;;;;;;;42.75;35.25;;;;;12.21;60.20;102076.34;4993481;28;45489;-80
2022/04/30 06:16:01;;;;;;;;;43.50;36.75;;;;;12.14;60.07;102065.91;4993698;28;54632;-80
2022/04/30 06:18:27;;;;;;;;;29.50;28.75;;;;;12.21;59.70;102077.22;4994984;28;45459;-80
2022/04/30 06:20:52;;;;;;;;;38.50;32.50;;;;;12.13;59.80;102071.34;4994518;28;49780;-80
2022/04/30 06:23:18;;;;;;;;;39.25;34.00;;;;;12.15;59.85;102075.69;4993812;28;45532;-80
2022/04/30 06:25:43;;;;;;;;;41.50;35.25;;;;;11.86;59.92;102023.47;4995207;28;46163;-80
2022/04/30 06:28:09;;;;;;;;;43.50;37.00;;;;;12.23;59.70;102077.16;4994691;28;45490;-80
2022/04/30 06:30:35;;;;;;;;;37.75;35.50;;;;;12.19;59.88;102072.88;4994055;28;45442;-80
2022/04/30 06:33:01;;;;;;;;;39.75;34.75;;;;;12.20;59.94;102080.84;4993490;28;45385;-80
2022/04/30 06:35:26;;;;;;;;;39.00;35.50;;;;;12.27;59.73;102086.78;4994750;28;46087;-80
2022/04/30 06:37:52;;;;;;;;;38.50;32.75;;;;;12.29;59.73;102077.78;4995284;28;45302;-80
2022/04/30 06:40:17;;;;;;;;;44.50;34.50;;;;;12.15;59.18;102040.13;4992931;28;55940;-80
2022/04/30 06:42:46;;;;;;;;;43.25;35.25;;;;;12.43;59.38;102079.84;4994514;28;45575;-80
2022/04/30 06:45:12;;;;;;;;;30.75;29.50;;;;;12.51;59.01;102084.88;4993175;28;47409;-80
2022/04/30 06:47:39;;;;;;;;;42.50;33.50;;;;;12.61;58.76;102091.56;4993717;28;45698;-80
2022/04/30 06:50:06;;;;;;;;;38.25;32.75;;;;;12.66;58.44;102088.69;4995210;28;45353;-80
2022/04/30 06:52:31;;;;;;;;;37.75;32.50;;;;;12.57;58.14;102065.91;4994465;28;45472;-80
2022/04/30 06:57:43;;;;;;;;;36.00;33.00;;;;;12.78;57.60;102090.84;4986728;28;45656;-80
2022/04/30 07:02:55;;;;;;;;;37.00;33.00;;;;;12.67;57.67;102074.41;4991421;28;45620;-80
2022/04/30 07:05:20;;;;;;;;;31.50;28.75;;;;;12.87;57.14;102106.47;4993708;28;46425;-80
2022/04/30 07:07:46;;;;;;;;;36.25;31.50;;;;;12.87;56.79;102097.56;4994455;28;45498;-80
2022/04/30 07:10:11;;;;;;;;;35.75;30.25;;;;;12.73;56.95;102072.34;4993642;28;45776;-80
2022/04/30 07:12:36;;;;;;;;;34.75;29.75;;;;;12.80;57.04;102086.31;4993376;28;45402;-80
2022/04/30 07:15:02;;;;;;;;;32.00;28.75;;;;;12.90;56.51;102097.44;4992132;28;46442;-79
2022/04/30 07:17:27;;;;;;;;;35.00;31.00;;;;;12.67;56.55;102067.25;4991027;28;45436;-80
2022/04/30 07:19:53;;;;;;;;;33.75;31.25;;;;;12.89;56.53;102109.97;4994150;28;45569;-80
2022/04/30 07:22:18;;;;;;;;;36.75;30.00;;;;;12.86;55.93;102094.03;4992101;28;45655;-80
2022/04/30 07:24:43;;;;;;;;;31.00;30.25;;;;;12.87;56.16;102102.91;4992933;28;45915;-79
2022/04/30 07:27:09;;;;;;;;;33.25;28.75;;;;;12.93;56.22;102108.00;4993250;28;45533;-80
2022/04/30 07:29:36;;;;;;;;;30.50;26.75;;;;;12.89;56.23;102098.38;4993283;28;45599;-80
2022/04/30 07:32:02;;;;;;;;;32.50;28.00;;;;;12.84;56.17;102095.03;4985726;28;45316;-80
2022/04/30 07:34:27;;;;;;;;;34.75;28.75;;;;;12.85;56.02;102100.31;4991831;28;45890;-80
2022/04/30 07:36:53;;;;;;;;;37.75;32.00;;;;;13.02;56.09;102118.28;4993247;28;45341;-78
2022/04/30 07:39:18;;;;;;;;;28.75;27.75;;;;;13.00;55.79;102114.81;4991942;28;45501;-78
2022/04/30 07:41:44;;;;;;;;;37.00;28.75;;;;;13.07;55.88;102115.41;4993512;28;45374;-78
2022/04/30 07:44:10;;;;;;;;;31.00;30.25;;;;;13.04;55.81;102112.88;4992890;28;47612;-79
2022/04/30 07:46:36;;;;;;;;;31.50;29.75;;;;;13.04;55.63;102084.34;4991829;28;45335;-79
2022/04/30 07:49:01;;;;;;;;;31.25;28.25;;;;;13.13;55.28;102112.44;4990672;28;45341;-78
2022/04/30 07:51:42;;;;;;;;;32.00;26.25;;;;;12.90;55.50;102070.72;4991707;28;45518;-78
2022/04/30 07:54:08;;;;;;;;;28.25;27.25;;;;;13.24;55.51;102118.19;5004116;28;48488;-78
2022/04/30 07:56:34;;;;;;;;;31.50;29.25;;;;;13.06;55.42;102101.19;4986123;28;45452;-78
2022/04/30 07:58:59;;;;;;;;;28.50;27.50;;;;;13.18;55.60;102114.00;4997225;28;45568;-78
2022/04/30 08:01:24;;;;;;;;;27.50;23.00;;;;;13.13;55.07;102104.44;4996239;28;45293;-78
2022/04/30 08:03:50;;;;;;;;;29.75;24.25;;;;;13.22;55.45;102114.72;4995058;28;46155;-78
2022/04/30 08:06:15;;;;;;;;;33.50;28.50;;;;;13.25;55.16;102100.34;4995836;28;52172;-79
2022/04/30 08:08:42;;;;;;;;;29.00;25.25;;;;;13.33;54.63;102112.47;4996522;28;45287;-79
2022/04/30 08:11:07;;;;;;;;;22.75;22.50;;;;;13.32;54.44;102116.06;4996696;28;45581;-79
2022/04/30 08:13:33;;;;;;;;;28.75;27.50;;;;;13.49;54.39;102133.16;4994259;28;47134;-79
2022/04/30 08:15:58;;;;;;;;;28.00;22.75;;;;;13.44;53.94;102111.97;4996186;28;45486;-79
2022/04/30 08:18:27;;;;;;;;;37.50;28.75;;;;;13.53;54.04;102124.91;5011054;28;46415;-79
2022/04/30 08:20:52;;;;;;;;;25.00;24.50;;;;;13.42;53.71;102108.47;5003755;28;45366;-78
2022/04/30 08:23:18;;;;;;;;;27.75;24.00;;;;;13.62;53.69;102135.19;4995685;28;45614;-79
2022/04/30 08:25:44;;;;;;;;;25.00;23.00;;;;;13.53;53.18;102097.31;4996189;28;45278;-79
2022/04/30 08:28:10;;;;;;;;;25.75;25.25;;;;;13.54;53.42;102078.50;4996122;28;45282;-79
2022/04/30 08:30:35;;;;;;;;;29.50;26.50;;;;;13.72;53.19;102111.56;4995913;28;45593;-79
2022/04/30 08:33:00;;;;;;;;;23.50;23.25;;;;;13.78;53.04;102108.59;4994207;28;47891;-79
2022/04/30 08:35:26;;;;;;;;;21.50;20.25;;;;;13.93;52.58;102114.16;4996003;28;45436;-79
2022/04/30 08:37:52;;;;;;;;;25.75;24.50;;;;;13.94;52.62;102113.19;4995489;28;45966;-78
2022/04/30 08:40:18;;;;;;;;;29.75;26.00;;;;;13.94;52.26;102102.50;4995696;28;45637;-78
2022/04/30 08:42:43;;;;;;;;;27.25;27.00;;;;;13.97;52.23;102119.25;4995617;28;45532;-79
2022/04/30 08:45:10;;;;;;;;;30.25;27.75;;;;;14.09;52.52;102133.88;4993969;28;45490;-79
2022/04/30 08:47:40;;;;;;;;;30.00;25.50;;;;;14.03;52.29;102104.72;4994877;28;45601;-78
2022/04/30 08:50:10;;;;;;;;;31.75;28.50;;;;;14.18;52.22;102121.84;5011141;28;45363;-78
2022/04/30 08:52:36;;;;;;;;;27.50;24.50;;;;;14.18;52.00;102101.28;4995354;28;45413;-79
2022/04/30 08:55:02;;;;;;;;;33.25;27.50;;;;;14.27;51.42;102116.06;4994878;28;45522;-79
2022/04/30 08:57:28;;;;;;;;;27.00;25.25;;;;;14.41;51.27;102118.91;4995641;28;49121;-79
2022/04/30 08:59:53;;;;;;;;;25.50;25.50;;;;;14.56;51.04;102100.34;4995179;28;45686;-79
2022/04/30 09:02:19;;;;;;;;;25.50;22.50;;;;;14.46;51.41;102084.72;4972011;28;45892;-78
2022/04/30 09:04:47;;;;;;;;;28.00;27.00;;;;;14.54;50.41;102086.16;4992871;28;45366;-79
2022/04/30 09:07:21;;;;;;;;;27.00;21.25;;;;;14.66;50.58;102106.97;4991653;28;45472;-78
2022/04/30 09:09:54;;;;;;;;;28.50;24.00;;;;;14.74;50.33;102110.13;4994799;28;45324;-78
2022/04/30 09:12:20;;;;;;;;;27.75;23.75;;;;;14.75;50.21;102108.31;4995035;28;45760;-78
2022/04/30 09:14:47;;;;;;;;;22.50;21.75;;;;;14.76;50.58;102084.09;4993078;28;45636;-79
2022/04/30 09:17:14;;;;;;;;;30.50;27.00;;;;;14.87;50.98;102100.50;4996013;28;45527;-78
2022/04/30 09:19:46;;;;;;;;;28.50;23.50;;;;;15.05;49.68;102106.69;4994913;28;45295;-78
2022/04/30 09:22:11;;;;;;;;;23.50;22.25;;;;;15.10;49.46;102096.63;4995258;28;46176;-78
2022/04/30 09:25:04;;;;;;;;;24.50;22.00;;;;;15.00;48.38;102075.72;4993076;28;46427;-79
2022/04/30 09:27:31;;;;;;;;;23.00;20.75;;;;;15.10;48.47;102068.91;4992738;28;45341;-78
2022/04/30 09:29:57;;;;;;;;;16.75;15.25;;;;;15.36;47.67;102093.47;4994040;28;45606;-79
2022/04/30 09:32:25;;;;;;;;;23.75;22.00;;;;;15.32;48.24;102079.34;4994600;28;47135;-79
2022/04/30 09:37:41;;;;;;;;;17.75;17.75;;;;;15.43;45.28;102073.41;4994378;28;45562;-79
2022/04/30 09:40:16;;;;;;;;;15.75;13.25;;;;;15.63;45.34;102088.38;4991725;28;45294;-79
2022/04/30 09:42:42;;;;;;;;;17.75;15.25;;;;;15.61;44.43;102082.22;4990773;28;46285;-79
2022/04/30 09:45:09;;;;;;;;;17.00;15.50;;;;;15.67;44.45;102080.06;4993880;28;45570;-79
2022/04/30 09:47:35;;;;;;;;;18.50;17.75;;;;;15.83;44.57;102090.88;4994321;28;45841;-79
2022/04/30 09:55:32;;;;;;;;;18.50;17.00;;;;;15.87;44.53;102068.22;4991163;28;45591;-80
2022/04/30 09:58:03;;;;;;;;;19.00;17.00;;;;;16.07;43.85;102087.72;4989457;28;45514;-80
2022/04/30 10:00:32;;;;;;;;;18.25;16.50;;;;;16.08;43.35;102076.03;4990040;28;45459;-80
2022/04/30 10:03:01;;;;;;;;;15.75;13.50;;;;;16.11;43.56;102073.16;5005699;28;46612;-78
2022/04/30 10:05:30;;;;;;;;;15.75;14.25;;;;;16.24;43.86;102063.44;4993088;28;45776;-80
2022/04/30 10:07:55;;;;;;;;;17.25;15.50;;;;;16.20;41.99;102061.88;4998205;28;45406;-81
2022/04/30 10:10:51;;;;;;;;;15.50;13.75;;;;;16.43;42.60;102090.09;4991077;28;45494;-80
2022/04/30 10:13:32;;;;;;;;;15.75;14.75;;;;;16.11;42.62;102019.41;4990955;28;47356;-80
2022/04/30 10:16:01;;;;;;;;;15.25;12.75;;;;;16.52;42.74;102081.44;4991389;28;45465;-80
2022/04/30 10:18:42;;;;;;;;;19.25;18.00;;;;;16.57;42.07;102086.56;4989874;28;45424;-80
2022/04/30 10:21:19;;;;;;;;;15.50;14.25;;;;;16.63;40.66;102071.91;4990237;28;45395;-80
2022/04/30 10:23:45;;;;;;;;;18.25;13.50;;;;;16.83;41.36;102080.50;4991577;28;68038;-80
2022/04/30 10:26:11;;;;;;;;;15.25;14.00;;;;;16.92;41.00;102073.69;4991732;28;45439;-80
2022/04/30 10:28:36;;;;;;;;;13.50;13.00;;;;;16.96;40.66;102050.19;4994066;28;45573;-81
2022/04/30 10:31:03;;;;;;;;;14.75;14.75;;;;;17.10;40.02;102052.88;4992542;28;45452;-80
2022/04/30 10:33:29;;;;;;;;;12.00;12.00;;;;;17.20;39.14;102074.69;4993523;28;46386;-81
2022/04/30 10:36:06;;;;;;;;;9.00;8.50;;;;;17.18;39.90;102055.94;4993381;28;45381;-81
2022/04/30 10:38:32;;;;;;;;;13.50;13.50;;;;;17.50;39.28;102065.63;4991821;28;45626;-81
2022/04/30 10:41:00;;;;;;;;;16.00;11.75;;;;;17.68;39.07;102068.00;4995183;28;45765;-81
2022/04/30 10:43:36;;;;;;;;;12.25;11.00;;;;;17.73;39.04;102046.16;4991265;28;45571;-81
2022/04/30 10:46:04;;;;;;;;;11.75;11.75;;;;;17.91;38.44;102070.19;4993404;28;45385;-81
2022/04/30 10:48:32;;;;;;;;;12.50;12.50;;;;;18.02;37.83;102052.34;4992743;28;45569;-80
2022/04/30 10:51:07;;;;;;;;;10.00;10.00;;;;;18.05;38.13;102062.06;4992474;28;45599;-82
2022/04/30 10:53:34;;;;;;;;;12.75;12.75;;;;;18.20;38.12;102052.94;4990255;28;47116;-81
2022/04/30 10:56:01;;;;;;;;;11.50;11.00;;;;;18.30;38.34;102051.38;4993245;28;45490;-81
2022/04/30 10:58:34;;;;;;;;;18.50;16.00;;;;;18.47;37.90;102046.63;4991583;28;45624;-81
2022/04/30 11:01:16;;;;;;;;;15.00;12.25;;;;;18.57;36.95;102046.84;4993763;28;45467;-81
2022/04/30 11:03:43;;;;;;;;;13.25;12.25;;;;;18.44;37.44;102036.91;5007710;28;48387;-81
2022/04/30 11:06:18;;;;;;;;;11.50;11.50;;;;;18.68;37.38;102038.91;4990511;28;45607;-81
2022/04/30 11:08:43;;;;;;;;;13.25;11.25;;;;;18.78;37.08;102039.16;4988547;28;47824;-81
2022/04/30 11:11:08;;;;;;;;;15.00;11.75;;;;;18.71;36.48;102030.56;4993887;28;47842;-81
2022/04/30 11:13:34;;;;;;;;;13.25;11.25;;;;;18.59;35.74;102012.56;4993483;28;45444;-81
2022/04/30 11:16:00;;;;;;;;;11.25;9.00;;;;;18.71;35.67;102036.84;4993371;28;45442;-81
2022/04/30 11:18:25;;;;;;;;;12.75;10.25;;;;;18.60;35.45;102000.81;4993935;28;45499;-81
2022/04/30 11:21:01;;;;;;;;;6.00;6.00;;;;;18.78;34.91;102006.78;4993575;28;45459;-81
2022/04/30 11:23:28;;;;;;;;;12.00;11.25;;;;;19.03;35.75;102025.66;4989943;28;46204;-82
2022/04/30 11:25:53;;;;;;;;;11.00;9.25;;;;;19.06;35.98;101993.03;4990392;28;45392;-82
2022/04/30 11:28:19;;;;;;;;;11.50;11.50;;;;;19.22;35.60;102009.00;4991125;28;45390;-82
2022/04/30 11:30:46;;;;;;;;;5.75;5.75;;;;;19.24;35.12;102008.88;4992892;28;45424;-81
2022/04/30 11:33:15;;;;;;;;;10.25;7.25;;;;;19.30;34.58;102008.44;5008663;28;48028;-81
2022/04/30 11:35:40;;;;;;;;;9.75;9.75;;;;;19.24;35.04;102004.34;4995609;28;45357;-81
2022/04/30 11:38:11;;;;;;;;;7.00;6.75;;;;;19.23;35.21;101996.34;4996361;28;45370;-81
2022/04/30 11:40:43;;;;;;;;;10.75;10.50;;;;;19.31;34.94;102005.63;4995841;28;45476;-82
2022/04/30 11:43:08;;;;;;;;;6.00;6.00;;;;;19.35;35.11;101981.97;4996266;28;46446;-82